ADDS METAR Data INFO
IDs: Format: Raw Decoded Include TAF

Data at: 0948 UTC 25 Jun 2018

KHBI 250945Z AUTO 00000KT 10SM CLR 23/21 A3006 RMK AO2 T02260209
KHBI 250925Z AUTO 00000KT 10SM CLR 23/21 A3005 RMK AO2 T02260210
KHBI 250905Z AUTO 19003KT 10SM CLR 23/21 A3005 RMK AO2 T02260210
KHBI 250845Z AUTO 18003KT 10SM CLR 23/21 A3005 RMK AO2 T02280210
KHBI 250825Z AUTO 00000KT 10SM CLR 23/21 A3003 RMK AO2 T02300210
KHBI 250805Z AUTO 00000KT 10SM CLR 23/21 A3002 RMK AO2 T02310210
KHBI 250745Z AUTO 00000KT 10SM CLR 23/21 A3002 RMK AO2 T02340210
KHBI 250725Z AUTO 00000KT 10SM CLR 23/21 A3001 RMK AO2 T02310210
KHBI 250705Z AUTO 00000KT 10SM CLR 24/21 A3001 RMK AO2 T02350211
KHBI 250645Z AUTO 00000KT 10SM CLR 24/21 A3000 RMK AO2 T02400210
KHBI 250625Z AUTO 00000KT 10SM CLR 24/21 A3001 RMK AO2 T02440211
KHBI 250605Z AUTO 00000KT 10SM CLR 25/21 A3001 RMK AO2 T02480213
KHBI 250545Z AUTO 00000KT 10SM CLR 25/21 A3002 RMK AO2 T02510213
KHBI 250525Z AUTO 00000KT 10SM CLR 26/21 A3002 RMK AO2 T02560213
KHBI 250505Z AUTO 22004KT 10SM CLR 26/21 A3003 RMK AO2 T02580212
KHBI 250445Z AUTO 00000KT 10SM CLR 26/21 A3003 RMK AO2 T02550214
KHBI 250425Z AUTO 00000KT 10SM CLR 26/21 A3000 RMK AO2 T02600214
KHBI 250405Z AUTO 20003KT 10SM CLR 25/21 A3000 RMK AO2 T02540214
KHBI 250345Z AUTO 00000KT 10SM CLR 25/21 A3000 RMK AO2 T02530213
KHBI 250325Z AUTO 00000KT 10SM CLR 26/21 A3000 RMK AO2 T02560213
KHBI 250305Z AUTO 00000KT 10SM CLR 26/21 A3001 RMK AO2 T02610213
KHBI 250245Z AUTO 19003KT 10SM CLR 27/22 A3000 RMK AO2 T02680215
KHBI 250225Z AUTO 00000KT 10SM SCT050 SCT060 27/21 A3000 RMK AO2 T02740210
KHBI 250205Z AUTO 00000KT 10SM SCT050 BKN070 BKN110 28/21 A3001 RMK AO2 T02790210
KHBI 250145Z AUTO 00000KT 10SM SCT070 28/21 A3001 RMK AO2 T02780207
KHBI 250125Z AUTO 00000KT 10SM CLR 29/21 A3000 RMK AO2 T02870207
KHBI 250105Z AUTO 00000KT 10SM CLR 29/21 A2999 RMK AO2 T02910210
KHBI 250045Z AUTO 17003KT 10SM CLR 30/20 A2998 RMK AO2 T02950203
KHBI 250025Z AUTO 20003KT 10SM CLR 31/20 A2997 RMK AO2 T03120199
KHBI 250005Z AUTO 23003KT 10SM CLR 32/19 A2995 RMK AO2 T03170191
KHBI 242345Z AUTO 25003KT 10SM CLR 32/19 A2995 RMK AO2 T03230191
KHBI 242325Z AUTO 24004KT 10SM CLR 33/19 A2995 RMK AO2 T03260187
KHBI 242305Z AUTO 26004KT 10SM CLR 33/19 A2995 RMK AO2 T03300186
KHBI 242245Z AUTO 23005G15KT 10SM CLR 33/18 A2995 RMK AO2 T03340183
KHBI 242225Z AUTO 27005KT 10SM SCT065 33/18 A2994 RMK AO2 T03310182
KHBI 242205Z AUTO 25004KT 10SM SCT065 34/18 A2993 RMK AO2 T03400181
KHBI 242145Z AUTO 25006KT 10SM SCT065 34/18 A2993 RMK AO2 T03400181
KHBI 242125Z AUTO 29008KT 10SM SCT090 SCT120 34/18 A2994 RMK AO2 T03370182
KHBI 242105Z AUTO 30006KT 10SM SCT065 SCT085 BKN110 33/18 A2994 RMK AO2 T03310181
KHBI 242045Z AUTO 28006KT 10SM SCT065 BKN085 34/18 A2994 RMK AO2 T03420177
KHBI 242025Z AUTO 28007KT 240V310 10SM SCT065 SCT085 34/18 A2994 RMK AO2 T03420175
KHBI 242005Z AUTO 26005KT 10SM SCT065 BKN085 34/17 A2994 RMK AO2 T03370172
KHBI 241945Z AUTO 25005KT 10SM SCT065 SCT075 34/17 A2994 RMK AO2 T03410172
KHBI 241925Z AUTO 24003KT 10SM SCT065 SCT100 34/17 A2995 RMK AO2 T03350172
KHBI 241905Z AUTO 26006G16KT 10SM BKN065 BKN075 BKN100 33/18 A2996 RMK AO2 T03300175
KHBI 241845Z AUTO 29008KT 250V310 10SM BKN065 33/18 A2997 RMK AO2 T03310177
KHBI 241825Z AUTO 26006KT 10SM BKN065 BKN080 33/18 A2997 RMK AO2 T03340180
KHBI 241805Z AUTO 28008G17KT 10SM BKN055 BKN080 33/18 A2998 RMK AO2 T03320179
KHBI 241745Z AUTO 28007G14KT 10SM SCT055 32/19 A2998 RMK AO2 T03230186
KHBI 241725Z AUTO 27008G14KT 250V310 10SM SCT050 33/18 A2998 RMK AO2 T03290183
KHBI 241705Z AUTO 28007KT 250V310 10SM BKN050 33/20 A2998 RMK AO2 T03250195
KHBI 241645Z AUTO 24007KT 10SM SCT050 SCT060 32/19 A2998 RMK AO2 T03190194
KHBI 241625Z AUTO 27005KT 10SM SCT042 SCT047 32/20 A2999 RMK AO2 T03160199
KHBI 241605Z AUTO 27006KT 10SM SCT042 SCT047 31/21 A3000 RMK AO2 T03100205
KHBI 241545Z AUTO 26006KT 10SM SCT040 31/20 A3000 RMK AO2 T03100204
KHBI 241525Z AUTO 21008KT 10SM CLR 30/20 A2999 RMK AO2 T03020203
KHBI 241505Z AUTO 22005KT 10SM CLR 30/20 A2998 RMK AO2 T02950201
KHBI 241445Z AUTO 21007KT 10SM CLR 29/20 A2998 RMK AO2 T02920200
KHBI 241425Z AUTO 22003KT 10SM CLR 29/20 A2999 RMK AO2 T02850200
KHBI 241405Z AUTO 21006KT 10SM CLR 28/20 A2999 RMK AO2 T02780202
KHBI 241345Z AUTO 21006KT 10SM CLR 27/20 A2999 RMK AO2 T02720201
KHBI 241325Z AUTO 23006KT 10SM CLR 26/20 A3000 RMK AO2 T02640200
KHBI 241305Z AUTO 22005KT 10SM CLR 26/20 A2999 RMK AO2 T02580197
KHBI 241245Z AUTO 20006KT 10SM CLR 25/20 A2999 RMK AO2 T02520197
KHBI 241225Z AUTO 21005KT 10SM CLR 25/20 A3000 RMK AO2 T02450195
KHBI 241205Z AUTO 22005KT 10SM CLR 24/19 A3000 RMK AO2 T02400194
KHBI 241145Z AUTO 21006KT 10SM CLR 24/19 A3000 RMK AO2 T02380193
KHBI 241125Z AUTO 20004KT 10SM CLR 23/19 A2998 RMK AO2 T02330193
KHBI 241105Z AUTO 19003KT 10SM CLR 23/19 A2997 RMK AO2 T02270190
KHBI 241045Z AUTO 21003KT 10SM CLR 22/19 A2997 RMK AO2 T02230189
KHBI 241025Z AUTO 21003KT 10SM CLR 23/19 A2997 RMK AO2 T02250187
KHBI 241005Z AUTO 20004KT 10SM CLR 23/19 A2996 RMK AO2 T02260185
KHBI 240945Z AUTO 21004KT 10SM CLR 23/19 A2995 RMK AO2 T02260185
KHBI 240925Z AUTO 20005KT 10SM CLR 23/18 A2995 RMK AO2 T02270182
KHBI 240905Z AUTO 20004KT 10SM CLR 23/18 A2994 RMK AO2 T02270181
KHBI 240845Z AUTO 21004KT 10SM CLR 23/18 A2994 RMK AO2 T02300180
KHBI 240825Z AUTO 21004KT 10SM CLR 23/18 A2993 RMK AO2 T02320180
KHBI 240805Z AUTO 22004KT 10SM CLR 24/18 A2993 RMK AO2 T02350178
KHBI 240745Z AUTO 22004KT 10SM CLR 24/18 A2993 RMK AO2 T02380177
KHBI 240725Z AUTO 22005KT 10SM CLR 24/18 A2993 RMK AO2 T02420176
KHBI 240705Z AUTO 22006KT 10SM CLR 25/18 A2993 RMK AO2 T02450176
KHBI 240645Z AUTO 22005KT 10SM CLR 25/18 A2993 RMK AO2 T02470175
KHBI 240625Z AUTO 22007KT 10SM CLR 25/18 A2993 RMK AO2 T02510175
KHBI 240605Z AUTO 21008KT 10SM CLR 25/18 A2993 RMK AO2 T02520175
KHBI 240545Z AUTO 21008KT 10SM CLR 26/18 A2993 RMK AO2 T02550179
KHBI 240525Z AUTO 21007KT 10SM CLR 26/18 A2992 RMK AO2 T02570183
KHBI 240505Z AUTO 20004KT 10SM CLR 26/19 A2992 RMK AO2 T02600186
KHBI 240445Z AUTO 20004KT 10SM CLR 26/19 A2992 RMK AO2 T02620189
KHBI 240425Z AUTO 20003KT 10SM CLR 27/19 A2993 RMK AO2 T02650190
KHBI 240405Z AUTO 20003KT 10SM CLR 27/19 A2993 RMK AO2 T02660190
KHBI 240345Z AUTO 20004KT 10SM CLR 26/19 A2992 RMK AO2 T02610191
KHBI 240325Z AUTO 00000KT 10SM CLR 26/19 A2991 RMK AO2 T02550194
KHBI 240305Z AUTO 00000KT 10SM CLR 25/20 A2991 RMK AO2 T02460198
KHBI 240245Z AUTO 00000KT 10SM CLR 25/20 A2990 RMK AO2 T02450200
KHBI 240225Z AUTO 00000KT 10SM CLR 25/20 A2989 RMK AO2 T02540200
KHBI 240205Z AUTO 00000KT 10SM CLR 26/20 A2988 RMK AO2 T02570198
KHBI 240145Z AUTO 20003KT 10SM CLR 26/20 A2987 RMK AO2 T02620196
KHBI 240125Z AUTO 00000KT 10SM CLR 27/19 A2986 RMK AO2 T02670192
KHBI 240105Z AUTO 00000KT 10SM CLR 26/20 A2987 RMK AO2 T02640200
KHBI 240045Z AUTO 00000KT 10SM CLR 28/20 A2987 RMK AO2 T02750197
KHBI 240025Z AUTO 00000KT 10SM CLR 29/19 A2988 RMK AO2 T02900194
KHBI 240005Z AUTO 00000KT 10SM CLR 30/18 A2987 RMK AO2 T03010182
KHBI 232345Z AUTO 22003KT 10SM CLR 31/18 A2987 RMK AO2 T03100180
KHBI 232325Z AUTO 23005KT 10SM CLR 31/18 A2987 RMK AO2 T03120176
KHBI 232305Z AUTO 22007KT 10SM CLR 32/17 A2987 RMK AO2 T03150174
KHBI 232245Z AUTO 24006KT 10SM CLR 31/17 A2987 RMK AO2 T03140173
KHBI 232225Z AUTO 25007KT 10SM CLR 31/18 A2987 RMK AO2 T03140175
KHBI 232205Z AUTO 25006KT 10SM CLR 31/18 A2987 RMK AO2 T03140175